createdAt,value
2024-01-01T00:00:05.289Z,7.95
2024-01-01T00:02:31.864Z,8.16
2024-01-01T00:04:58.485Z,8.05
2024-01-01T00:07:25.090Z,8.10
2024-01-01T00:09:51.647Z,7.78
2024-01-01T00:12:18.197Z,7.47
2024-01-01T00:14:44.777Z,7.45
2024-01-01T00:17:11.511Z,7.17
2024-01-01T00:19:38.296Z,7.39
2024-01-01T00:22:04.953Z,7.49
2024-01-01T00:24:31.515Z,7.65
2024-01-01T00:26:58.063Z,7.41
2024-01-01T00:29:28.373Z,7.57
2024-01-01T00:32:00.390Z,7.66
2024-01-01T00:34:27.110Z,7.45
2024-01-01T00:36:53.669Z,7.65
2024-01-01T00:39:20.218Z,7.98
2024-01-01T00:41:46.843Z,7.69
2024-01-01T00:44:13.477Z,7.73
2024-01-01T00:46:40.148Z,7.64
2024-01-01T00:49:06.758Z,7.74
2024-01-01T00:51:33.344Z,7.41
2024-01-01T00:53:59.917Z,7.05
2024-01-01T00:56:26.659Z,6.90
2024-01-01T00:58:53.185Z,6.16
2024-01-01T01:01:19.711Z,6.43
2024-01-01T01:03:46.213Z,6.61
2024-01-01T01:06:18.423Z,6.12
2024-01-01T01:08:50.762Z,6.63
2024-01-01T01:11:17.172Z,6.56
2024-01-01T01:13:43.631Z,6.37
2024-01-01T01:16:10.059Z,6.82
2024-01-01T01:18:36.555Z,7.12
2024-01-01T01:21:03.146Z,6.82
2024-01-01T01:23:29.597Z,7.03
2024-01-01T01:25:56.049Z,7.30
2024-01-01T01:28:22.488Z,7.42
2024-01-01T01:30:48.918Z,7.40
2024-01-01T01:33:15.430Z,7.57
2024-01-01T01:35:41.996Z,7.56
2024-01-01T01:38:08.518Z,7.61
2024-01-01T01:40:35.142Z,7.88
2024-01-01T01:43:01.783Z,7.60
2024-01-01T01:45:28.205Z,7.95
2024-01-01T01:47:54.660Z,7.94
2024-01-01T01:50:21.137Z,7.95
2024-01-01T01:52:47.561Z,7.59
2024-01-01T01:55:14.015Z,7.69
2024-01-01T01:57:40.572Z,7.83
2024-01-01T02:00:07.144Z,7.60
2024-01-01T02:02:33.685Z,7.45
2024-01-01T02:05:00.372Z,7.32
2024-01-01T02:07:27.000Z,6.81
2024-01-01T02:09:53.574Z,6.72
2024-01-01T02:12:20.204Z,6.67
2024-01-01T02:14:46.739Z,6.86
2024-01-01T02:17:13.376Z,6.28
2024-01-01T02:19:39.958Z,6.62
2024-01-01T02:22:06.584Z,6.76
2024-01-01T02:24:33.138Z,6.94
2024-01-01T02:26:59.867Z,6.93
2024-01-01T02:29:26.477Z,6.59
2024-01-01T02:31:53.171Z,6.74
2024-01-01T02:34:19.785Z,6.80
2024-01-01T02:36:46.341Z,7.16
2024-01-01T02:39:12.892Z,7.32
2024-01-01T02:41:39.462Z,6.85
2024-01-01T02:44:06.107Z,6.89
2024-01-01T02:46:32.864Z,6.68
2024-01-01T02:48:59.809Z,6.43
2024-01-01T02:51:26.390Z,6.49
2024-01-01T02:53:52.974Z,6.37
2024-01-01T02:56:19.663Z,6.41
2024-01-01T02:58:46.360Z,6.50
2024-01-01T03:01:13.146Z,6.45
2024-01-01T03:03:39.704Z,6.35
2024-01-01T03:06:06.418Z,6.82
2024-01-01T03:08:33.093Z,7.13
2024-01-01T03:10:59.892Z,7.17
2024-01-01T03:13:26.585Z,7.10
2024-01-01T03:15:53.124Z,7.06
2024-01-01T03:18:19.823Z,7.23
2024-01-01T03:20:46.540Z,7.02
2024-01-01T03:23:13.236Z,6.91
2024-01-01T03:25:39.840Z,7.21
2024-01-01T03:28:06.639Z,6.83
2024-01-01T03:30:33.309Z,7.09
2024-01-01T03:32:59.982Z,7.25
2024-01-01T03:35:26.634Z,7.11
2024-01-01T03:37:53.248Z,6.78
2024-01-01T03:40:19.817Z,6.44
2024-01-01T03:42:46.377Z,6.52
2024-01-01T03:45:12.886Z,6.20
2024-01-01T03:47:39.556Z,6.21
2024-01-01T03:50:06.177Z,6.57
2024-01-01T03:52:32.810Z,6.76
2024-01-01T03:54:59.378Z,6.98
2024-01-01T03:57:25.898Z,6.77
2024-01-01T03:59:52.658Z,6.70
2024-01-01T04:02:19.335Z,6.87
2024-01-01T04:04:46.094Z,6.96
2024-01-01T04:07:12.724Z,6.92
2024-01-01T04:09:39.294Z,7.04
2024-01-01T04:12:05.878Z,7.20
2024-01-01T04:14:35.647Z,7.18
2024-01-01T04:17:02.092Z,7.07
2024-01-01T04:19:28.504Z,7.17
2024-01-01T04:21:54.909Z,7.11
2024-01-01T04:24:21.295Z,6.60
2024-01-01T04:26:47.715Z,6.92
2024-01-01T04:29:14.193Z,6.50
2024-01-01T04:31:40.697Z,6.36
2024-01-01T04:34:07.096Z,6.47
2024-01-01T04:36:33.596Z,6.29
2024-01-01T04:39:00.086Z,6.29
2024-01-01T04:41:26.568Z,6.48
2024-01-01T04:43:53.018Z,6.43
2024-01-01T04:46:19.415Z,6.38
2024-01-01T04:48:45.840Z,6.39
2024-01-01T04:51:12.362Z,6.49
2024-01-01T04:53:38.836Z,6.74
2024-01-01T04:56:05.269Z,7.07
2024-01-01T04:58:31.677Z,7.32
2024-01-01T05:00:58.123Z,7.18
2024-01-01T05:03:24.558Z,7.23
2024-01-01T05:05:51.168Z,7.29
2024-01-01T05:08:17.627Z,7.03
2024-01-01T05:10:44.141Z,6.84
2024-01-01T05:13:10.567Z,6.06
2024-01-01T05:15:37.253Z,6.38
2024-01-01T05:18:04.004Z,6.44
2024-01-01T05:20:30.791Z,6.19
2024-01-01T05:22:57.526Z,5.87
2024-01-01T05:25:24.095Z,6.42
2024-01-01T05:27:50.670Z,5.90
2024-01-01T05:30:17.333Z,6.51
2024-01-01T05:32:44.039Z,6.26
2024-01-01T05:35:11.027Z,6.32
2024-01-01T05:37:37.702Z,6.26
2024-01-01T05:40:04.340Z,5.99
2024-01-01T05:42:30.990Z,5.91
2024-01-01T05:44:57.645Z,6.00
2024-01-01T05:47:24.251Z,6.16
2024-01-01T05:49:50.921Z,5.63
2024-01-01T05:52:17.566Z,5.64
2024-01-01T05:54:44.147Z,5.61
2024-01-01T05:57:10.700Z,5.76
2024-01-01T05:59:37.245Z,6.02
2024-01-01T06:02:03.953Z,5.91
2024-01-01T06:04:32.469Z,6.21
2024-01-01T06:06:59.095Z,6.62
2024-01-01T06:09:25.718Z,6.80
2024-01-01T06:11:52.292Z,6.94
2024-01-01T06:14:19.049Z,6.86
2024-01-01T06:16:45.825Z,6.95
2024-01-01T06:19:12.572Z,7.13
2024-01-01T06:21:39.206Z,7.22
2024-01-01T06:24:06.005Z,7.12
2024-01-01T06:26:32.668Z,7.30
2024-01-01T06:28:59.230Z,7.04
2024-01-01T06:31:25.864Z,6.86
2024-01-01T06:33:52.682Z,6.79
2024-01-01T06:36:19.334Z,7.29
2024-01-01T06:38:45.965Z,7.45
2024-01-01T06:41:12.601Z,7.18
2024-01-01T06:43:39.202Z,7.29
2024-01-01T06:46:05.776Z,7.27
2024-01-01T06:48:32.625Z,7.20
2024-01-01T06:50:59.208Z,7.49
2024-01-01T06:53:25.938Z,7.03
2024-01-01T06:55:52.534Z,6.94
2024-01-01T06:58:19.286Z,7.10
2024-01-01T07:00:45.890Z,7.19
2024-01-01T07:03:12.595Z,6.70
2024-01-01T07:05:39.410Z,6.97
2024-01-01T07:08:06.657Z,7.08
2024-01-01T07:10:33.468Z,7.21
2024-01-01T07:12:59.998Z,6.56
2024-01-01T07:15:26.753Z,6.81
2024-01-01T07:17:53.860Z,7.02
2024-01-01T07:20:21.107Z,6.99
2024-01-01T07:22:47.895Z,7.12
2024-01-01T07:25:14.686Z,7.25
2024-01-01T07:27:41.324Z,6.54
2024-01-01T07:30:08.062Z,7.01
2024-01-01T07:32:34.750Z,7.34
2024-01-01T07:35:01.486Z,7.29
2024-01-01T07:37:28.118Z,7.42
2024-01-01T07:39:55.726Z,7.20
2024-01-01T07:42:22.465Z,7.41
2024-01-01T07:44:49.083Z,7.63
2024-01-01T07:47:15.713Z,7.78
2024-01-01T07:49:42.523Z,7.36
2024-01-01T07:52:09.096Z,7.48
2024-01-01T07:54:35.719Z,7.89
2024-01-01T07:57:02.280Z,8.09
2024-01-01T07:59:28.861Z,8.12
2024-01-01T08:01:55.564Z,8.29
2024-01-01T08:04:22.259Z,8.37
2024-01-01T08:06:48.789Z,8.20
2024-01-01T08:09:15.362Z,8.07
2024-01-01T08:11:41.894Z,8.27
2024-01-01T08:14:08.618Z,8.36
2024-01-01T08:16:35.555Z,8.08
2024-01-01T08:19:02.361Z,8.14
2024-01-01T08:21:28.954Z,8.38
2024-01-01T08:23:56.012Z,7.74
2024-01-01T08:26:22.738Z,7.65
2024-01-01T08:28:49.450Z,7.64
2024-01-01T08:31:16.034Z,7.40
2024-01-01T08:33:42.632Z,7.82
2024-01-01T08:36:09.305Z,7.42
2024-01-01T08:38:35.940Z,8.03
2024-01-01T08:41:02.516Z,8.00
2024-01-01T08:43:29.255Z,8.25
2024-01-01T08:45:56.037Z,8.74
2024-01-01T08:48:22.845Z,9.45
2024-01-01T08:50:49.628Z,11.59
2024-01-01T08:53:16.969Z,12.70
2024-01-01T08:55:44.118Z,13.96
2024-01-01T08:58:10.686Z,13.91
2024-01-01T09:00:37.288Z,13.87
2024-01-01T09:03:03.912Z,13.87
2024-01-01T09:05:30.562Z,15.17
2024-01-01T09:07:57.219Z,14.94
2024-01-01T09:10:23.778Z,14.18
2024-01-01T09:12:50.588Z,14.30
2024-01-01T09:15:17.260Z,13.68
2024-01-01T09:17:44.118Z,12.28
2024-01-01T09:20:10.824Z,11.16
2024-01-01T09:22:37.402Z,10.29
2024-01-01T09:25:03.965Z,9.58
2024-01-01T09:27:30.527Z,9.80
2024-01-01T09:29:57.046Z,9.70
2024-01-01T09:32:23.744Z,9.33
2024-01-01T09:34:50.345Z,9.09
2024-01-01T09:37:16.783Z,8.91
2024-01-01T09:39:43.189Z,9.69
2024-01-01T09:42:09.594Z,11.06
2024-01-01T09:44:36.071Z,11.94
2024-01-01T09:47:02.595Z,13.12
2024-01-01T09:49:29.156Z,14.22
2024-01-01T09:51:55.614Z,13.65
2024-01-01T09:54:22.070Z,12.45
2024-01-01T09:56:48.532Z,12.56
2024-01-01T09:59:15.042Z,10.66
2024-01-01T10:01:41.594Z,9.52
2024-01-01T10:04:08.004Z,9.36
2024-01-01T10:06:34.635Z,8.78
2024-01-01T10:09:01.073Z,8.96
2024-01-01T10:11:27.639Z,10.69
2024-01-01T10:13:54.106Z,11.87
2024-01-01T10:16:22.623Z,12.62
2024-01-01T10:18:49.185Z,12.43
2024-01-01T10:21:16.535Z,14.07
2024-01-01T10:23:43.261Z,12.02
2024-01-01T10:26:09.737Z,11.16
2024-01-01T10:28:36.215Z,10.65
2024-01-01T10:31:02.877Z,10.35
2024-01-01T10:33:29.551Z,9.79
2024-01-01T10:35:56.242Z,10.23
2024-01-01T10:38:22.938Z,10.40
2024-01-01T10:40:49.550Z,10.69
2024-01-01T10:43:16.163Z,10.20
2024-01-01T10:45:42.696Z,10.55
2024-01-01T10:48:09.604Z,9.67
2024-01-01T10:50:36.298Z,9.29
2024-01-01T10:53:03.011Z,9.22
2024-01-01T10:55:29.667Z,9.35
2024-01-01T10:57:56.302Z,9.18
2024-01-01T11:00:22.993Z,8.85
2024-01-01T11:02:49.636Z,10.58
2024-01-01T11:05:16.498Z,11.26
2024-01-01T11:07:43.217Z,11.25
2024-01-01T11:10:19.000Z,10.02
2024-01-01T11:12:48.542Z,9.30
2024-01-01T11:15:15.161Z,9.45
2024-01-01T11:17:41.831Z,8.92
2024-01-01T11:20:08.536Z,9.04
2024-01-01T11:22:35.154Z,8.87
2024-01-01T11:25:02.180Z,8.83
2024-01-01T11:27:28.957Z,8.78
2024-01-01T11:29:55.744Z,8.79
2024-01-01T11:32:22.568Z,8.74
2024-01-01T11:34:54.192Z,8.30
2024-01-01T11:37:23.529Z,8.38
2024-01-01T11:39:49.984Z,8.56
2024-01-01T11:42:16.564Z,8.41
2024-01-01T11:44:43.103Z,8.21
2024-01-01T11:47:09.614Z,8.26
2024-01-01T11:49:36.079Z,8.17
2024-01-01T11:52:02.610Z,8.35
2024-01-01T11:54:29.047Z,8.53
2024-01-01T11:56:55.494Z,8.98
2024-01-01T11:59:22.192Z,8.80
2024-01-01T12:01:48.830Z,9.10
2024-01-01T12:04:15.482Z,9.33
2024-01-01T12:06:42.100Z,9.40
2024-01-01T12:09:08.594Z,9.56
2024-01-01T12:11:34.991Z,9.28
2024-01-01T12:14:01.443Z,9.60
2024-01-01T12:16:27.894Z,9.61
2024-01-01T12:18:54.375Z,9.08
2024-01-01T12:21:20.795Z,9.47
2024-01-01T12:23:47.191Z,9.18
2024-01-01T12:26:13.615Z,9.24
2024-01-01T12:28:41.782Z,9.06
2024-01-01T12:31:08.278Z,8.97
2024-01-01T12:33:35.027Z,8.95
2024-01-01T12:36:01.679Z,8.81
2024-01-01T12:38:28.416Z,8.76
2024-01-01T12:40:55.047Z,8.91
2024-01-01T12:43:21.624Z,8.77
2024-01-01T12:45:48.170Z,8.78
2024-01-01T12:48:14.812Z,9.09
2024-01-01T12:50:41.402Z,9.08
2024-01-01T12:53:08.379Z,8.92
2024-01-01T12:55:35.239Z,9.15
2024-01-01T12:58:01.815Z,9.42
2024-01-01T13:00:28.411Z,9.65
2024-01-01T13:02:55.038Z,9.11
2024-01-01T13:05:21.653Z,9.13
2024-01-01T13:07:48.291Z,9.02
2024-01-01T13:10:14.916Z,8.92
2024-01-01T13:12:41.466Z,9.49
2024-01-01T13:15:07.994Z,9.95
2024-01-01T13:17:34.815Z,9.84
2024-01-01T13:20:01.561Z,10.20
2024-01-01T13:22:28.300Z,10.30
2024-01-01T13:24:54.848Z,10.33
2024-01-01T13:27:21.489Z,9.89
2024-01-01T13:29:48.112Z,10.27
2024-01-01T13:32:14.867Z,10.22
2024-01-01T13:34:41.712Z,10.74
2024-01-01T13:37:08.498Z,10.44
2024-01-01T13:39:35.055Z,10.18
2024-01-01T13:42:01.648Z,10.28
2024-01-01T13:44:28.142Z,9.96
2024-01-01T13:46:54.612Z,9.87
2024-01-01T13:49:21.090Z,9.95
2024-01-01T13:51:50.311Z,9.90
2024-01-01T13:54:17.097Z,10.22
2024-01-01T13:56:43.695Z,10.36
2024-01-01T13:59:10.279Z,10.08
2024-01-01T14:01:36.739Z,10.14
2024-01-01T14:04:03.460Z,10.10
2024-01-01T14:06:30.043Z,10.49
2024-01-01T14:08:56.498Z,10.41
2024-01-01T14:11:23.151Z,10.14
2024-01-01T14:13:49.788Z,9.98
2024-01-01T14:16:16.365Z,9.93
2024-01-01T14:18:42.868Z,9.96
2024-01-01T14:21:09.336Z,9.77
2024-01-01T14:23:35.872Z,9.68
2024-01-01T14:26:02.388Z,9.68
2024-01-01T14:28:28.865Z,9.76
2024-01-01T14:30:55.414Z,9.59
2024-01-01T14:33:21.995Z,9.62
2024-01-01T14:35:48.696Z,10.09
2024-01-01T14:38:15.239Z,10.15
2024-01-01T14:40:41.956Z,10.48
2024-01-01T14:43:08.737Z,10.11
2024-01-01T14:45:35.331Z,10.30
2024-01-01T14:48:02.101Z,10.26
2024-01-01T14:50:28.816Z,10.01
2024-01-01T14:52:55.505Z,9.97
2024-01-01T14:55:22.078Z,9.84
2024-01-01T14:57:48.677Z,9.71
2024-01-01T15:00:15.232Z,9.72
2024-01-01T15:02:41.784Z,9.73
2024-01-01T15:05:08.526Z,9.67
2024-01-01T15:07:35.115Z,10.00
2024-01-01T15:10:01.692Z,9.89
2024-01-01T15:12:28.252Z,9.57
2024-01-01T15:14:54.816Z,9.38
2024-01-01T15:17:21.626Z,9.33
2024-01-01T15:19:48.321Z,9.34
2024-01-01T15:22:14.979Z,9.45
2024-01-01T15:24:41.617Z,9.65
2024-01-01T15:27:08.224Z,9.43
2024-01-01T15:29:34.846Z,9.55
2024-01-01T15:32:01.456Z,9.63
2024-01-01T15:34:28.104Z,9.60
2024-01-01T15:36:54.678Z,9.65
2024-01-01T15:39:21.303Z,9.63
2024-01-01T15:41:47.853Z,9.56
2024-01-01T15:44:14.590Z,9.55
2024-01-01T15:46:41.254Z,9.54
2024-01-01T15:49:07.865Z,9.41
2024-01-01T15:51:39.333Z,9.50
2024-01-01T15:54:06.715Z,9.43
2024-01-01T15:56:33.424Z,9.71
2024-01-01T15:59:00.166Z,9.65
2024-01-01T16:01:27.020Z,9.64
2024-01-01T16:03:53.794Z,9.67
2024-01-01T16:06:20.793Z,10.04
2024-01-01T16:08:47.628Z,9.72
2024-01-01T16:11:14.443Z,9.72
2024-01-01T16:13:41.329Z,9.84
2024-01-01T16:16:08.074Z,10.07
2024-01-01T16:18:34.928Z,9.64
2024-01-01T16:21:02.924Z,9.76
2024-01-01T16:23:29.743Z,9.68
2024-01-01T16:25:56.448Z,9.61
2024-01-01T16:28:23.097Z,9.70
2024-01-01T16:30:49.891Z,9.74
2024-01-01T16:33:16.796Z,9.57
2024-01-01T16:35:43.554Z,9.43
2024-01-01T16:38:10.225Z,9.59
2024-01-01T16:40:36.877Z,9.47
2024-01-01T16:43:03.671Z,9.34
2024-01-01T16:45:30.471Z,9.32
2024-01-01T16:47:57.196Z,9.47
2024-01-01T16:50:23.882Z,9.46
2024-01-01T16:52:50.518Z,9.56
2024-01-01T16:55:17.390Z,8.86
2024-01-01T16:57:43.929Z,9.49
2024-01-01T17:00:10.583Z,9.57
2024-01-01T17:02:37.326Z,8.79
2024-01-01T17:05:04.064Z,8.73
2024-01-01T17:07:30.708Z,8.87
2024-01-01T17:09:57.286Z,8.81
2024-01-01T17:12:23.994Z,8.95
2024-01-01T17:14:50.602Z,9.10
2024-01-01T17:17:17.247Z,8.75
2024-01-01T17:19:43.841Z,8.81
2024-01-01T17:22:10.720Z,9.01
2024-01-01T17:24:37.339Z,9.29
2024-01-01T17:27:04.105Z,9.33
2024-01-01T17:29:30.837Z,9.29
2024-01-01T17:31:57.506Z,9.46
2024-01-01T17:34:24.158Z,9.42
2024-01-01T17:36:50.745Z,9.37
2024-01-01T17:39:17.341Z,9.59
2024-01-01T17:41:43.896Z,9.64
2024-01-01T17:44:10.686Z,9.49
2024-01-01T17:46:37.281Z,9.46
2024-01-01T17:49:03.996Z,9.46
2024-01-01T17:51:30.669Z,9.47
2024-01-01T17:53:57.265Z,9.43
2024-01-01T17:56:23.796Z,9.20
2024-01-01T17:58:50.354Z,9.19
2024-01-01T18:01:16.778Z,9.18
2024-01-01T18:03:43.408Z,9.30
2024-01-01T18:06:10.033Z,9.38
2024-01-01T18:08:36.705Z,9.08
2024-01-01T18:11:03.277Z,9.23
2024-01-01T18:13:29.718Z,9.32
2024-01-01T18:15:56.180Z,9.20
2024-01-01T18:18:22.695Z,8.96
2024-01-01T18:20:49.192Z,8.98
2024-01-01T18:23:15.782Z,9.09
2024-01-01T18:25:42.246Z,8.97
2024-01-01T18:28:08.692Z,8.82
2024-01-01T18:30:35.193Z,8.99
2024-01-01T18:33:01.862Z,9.10
2024-01-01T18:35:28.570Z,8.96
2024-01-01T18:37:55.443Z,9.04
2024-01-01T18:40:21.936Z,9.39
2024-01-01T18:42:48.656Z,9.07
2024-01-01T18:45:15.353Z,9.26
2024-01-01T18:47:42.257Z,9.38
2024-01-01T18:50:09.656Z,9.15
2024-01-01T18:52:39.508Z,9.04
2024-01-01T18:55:06.335Z,8.85
2024-01-01T18:57:33.075Z,8.15
2024-01-01T18:59:59.786Z,8.43
2024-01-01T19:02:26.423Z,8.92
2024-01-01T19:04:53.656Z,8.96
2024-01-01T19:07:20.505Z,9.02
2024-01-01T19:09:47.151Z,9.34
2024-01-01T19:12:13.724Z,9.01
2024-01-01T19:14:40.599Z,9.27
2024-01-01T19:17:07.382Z,8.41
2024-01-01T19:19:34.290Z,9.04
2024-01-01T19:22:01.419Z,9.24
2024-01-01T19:24:28.233Z,9.40
2024-01-01T19:26:54.971Z,8.75
2024-01-01T19:29:21.601Z,8.86
2024-01-01T19:31:48.691Z,8.92
2024-01-01T19:34:15.588Z,8.51
2024-01-01T19:36:42.317Z,8.80
2024-01-01T19:39:09.353Z,8.82
2024-01-01T19:41:36.071Z,8.05
2024-01-01T19:44:02.980Z,8.14
2024-01-01T19:46:29.716Z,8.62
2024-01-01T19:48:56.463Z,7.76
2024-01-01T19:51:23.086Z,8.13
2024-01-01T19:53:50.062Z,8.30
2024-01-01T19:56:16.876Z,8.31
2024-01-01T19:58:43.460Z,8.54
2024-01-01T20:01:10.096Z,8.95
2024-01-01T20:03:36.876Z,9.03
2024-01-01T20:06:03.515Z,8.67
2024-01-01T20:08:36.902Z,8.94
2024-01-01T20:11:06.926Z,8.81
2024-01-01T20:13:33.527Z,8.47
2024-01-01T20:16:00.138Z,8.27
2024-01-01T20:18:26.863Z,8.26
2024-01-01T20:20:53.634Z,8.10
2024-01-01T20:23:20.345Z,8.11
2024-01-01T20:25:46.949Z,8.09
2024-01-01T20:28:13.638Z,7.92
2024-01-01T20:30:40.214Z,7.89
2024-01-01T20:33:07.212Z,7.87
2024-01-01T20:35:34.127Z,8.16
2024-01-01T20:38:00.837Z,7.97
2024-01-01T20:40:27.516Z,8.30
2024-01-01T20:42:54.141Z,8.09
2024-01-01T20:45:20.730Z,8.11
2024-01-01T20:47:47.343Z,8.06
2024-01-01T20:50:14.013Z,7.95
2024-01-01T20:52:46.490Z,7.91
2024-01-01T20:55:19.597Z,7.90
2024-01-01T20:57:46.353Z,8.11
2024-01-01T21:00:13.255Z,8.09
2024-01-01T21:02:40.040Z,8.28
2024-01-01T21:05:06.744Z,8.53
2024-01-01T21:07:35.913Z,8.77
2024-01-01T21:10:02.698Z,8.80
2024-01-01T21:12:29.363Z,8.52
2024-01-01T21:14:55.990Z,8.48
2024-01-01T21:17:22.646Z,8.42
2024-01-01T21:19:50.482Z,8.40
2024-01-01T21:22:17.165Z,8.53
2024-01-01T21:24:43.888Z,8.78
2024-01-01T21:27:10.726Z,8.49
2024-01-01T21:29:37.549Z,8.33
2024-01-01T21:32:04.362Z,8.30
2024-01-01T21:34:31.083Z,8.63
2024-01-01T21:36:57.694Z,8.72
2024-01-01T21:39:24.337Z,8.63
2024-01-01T21:41:51.070Z,8.48
2024-01-01T21:44:17.723Z,8.54
2024-01-01T21:46:44.417Z,8.33
2024-01-01T21:49:11.231Z,8.41
2024-01-01T21:51:38.079Z,8.52
2024-01-01T21:54:04.636Z,8.31
2024-01-01T21:56:31.287Z,8.37
2024-01-01T21:58:57.861Z,8.24
2024-01-01T22:01:24.463Z,8.45
2024-01-01T22:03:52.694Z,8.44
2024-01-01T22:06:19.355Z,8.11
2024-01-01T22:08:46.213Z,8.21
2024-01-01T22:11:13.127Z,8.19
2024-01-01T22:13:39.711Z,8.40
2024-01-01T22:16:06.343Z,8.53
2024-01-01T22:18:33.006Z,8.62
2024-01-01T22:20:59.728Z,8.35
2024-01-01T22:23:26.500Z,7.89
2024-01-01T22:25:53.320Z,8.07
2024-01-01T22:28:20.142Z,7.76
2024-01-01T22:30:46.964Z,7.70
2024-01-01T22:33:13.857Z,7.64
2024-01-01T22:35:40.584Z,7.71
2024-01-01T22:38:07.303Z,7.51
2024-01-01T22:40:33.935Z,7.62
2024-01-01T22:43:00.523Z,7.60
2024-01-01T22:45:27.118Z,7.52
2024-01-01T22:47:53.817Z,7.58
2024-01-01T22:50:20.830Z,7.36
2024-01-01T22:52:47.560Z,7.24
2024-01-01T22:55:14.192Z,7.42
2024-01-01T22:57:40.762Z,7.40
2024-01-01T23:00:07.370Z,7.29
2024-01-01T23:02:35.864Z,7.22
2024-01-01T23:05:02.441Z,7.23
2024-01-01T23:07:29.075Z,7.26
2024-01-01T23:09:55.668Z,7.37
2024-01-01T23:12:22.293Z,7.55
2024-01-01T23:14:48.842Z,7.57
2024-01-01T23:17:15.445Z,7.70
2024-01-01T23:19:42.017Z,7.73
2024-01-01T23:22:08.595Z,7.90
2024-01-01T23:24:35.165Z,7.80
2024-01-01T23:27:01.743Z,7.79
2024-01-01T23:29:28.430Z,7.74
2024-01-01T23:31:55.278Z,7.63
2024-01-01T23:34:22.227Z,7.52
2024-01-01T23:36:49.211Z,7.40
2024-01-01T23:39:16.050Z,7.43
2024-01-01T23:41:42.802Z,7.33
2024-01-01T23:44:09.391Z,7.36
2024-01-01T23:46:35.977Z,7.22
2024-01-01T23:49:02.627Z,7.20
2024-01-01T23:51:29.240Z,7.24
2024-01-01T23:53:57.252Z,7.26
2024-01-01T23:56:24.967Z,6.99
2024-01-01T23:58:51.608Z,6.31
